Time;durP1;ratioP1;P1;durP2;ratioP2;P2;SDS_P1;SDS_P2;PMS_P1;PMS_P2;Temp;Humidity;BMP_temperature;BMP_pressure;BME280_temperature;BME280_humidity;BME280_pressure;Samples;Min_cycle;Max_cycle;Signal;HPM_P1;HPM_P2
2023/08/11 00:02:05;;;;;;;6.10;3.28;;;;;;;20.80;75.03;100748.91;4971472;28;20026;-80
2023/08/11 00:04:31;;;;;;;13.10;3.85;;;;;;;20.95;74.98;100763.44;4955098;28;20074;-78
2023/08/11 00:06:57;;;;;;;7.85;3.58;;;;;;;20.91;74.96;100773.94;4971168;28;20679;-78
2023/08/11 00:09:23;;;;;;;6.30;3.30;;;;;;;20.89;75.14;100772.38;4968814;28;20043;-82
2023/08/11 00:11:50;;;;;;;6.22;3.50;;;;;;;20.86;75.33;100776.34;4970624;28;20574;-79
2023/08/11 00:14:16;;;;;;;7.05;3.72;;;;;;;20.88;74.95;100784.38;4970953;28;20117;-79
2023/08/11 00:16:41;;;;;;;6.15;4.22;;;;;;;20.92;74.90;100777.47;4971252;28;20026;-79
2023/08/11 00:19:07;;;;;;;6.70;3.67;;;;;;;20.87;74.88;100769.00;4970820;28;20034;-79
2023/08/11 00:21:32;;;;;;;19.48;4.30;;;;;;;20.89;74.28;100764.19;4971013;28;20093;-79
2023/08/11 00:23:58;;;;;;;6.63;3.50;;;;;;;20.90;74.05;100758.53;4970824;28;20031;-78
2023/08/11 00:26:23;;;;;;;7.43;4.35;;;;;;;20.83;74.23;100751.28;4970796;28;20030;-79
2023/08/11 00:28:49;;;;;;;4.80;3.15;;;;;;;20.97;74.23;100773.16;4970656;28;20035;-78
2023/08/11 00:31:14;;;;;;;5.80;3.35;;;;;;;20.99;73.70;100764.75;4970641;28;20031;-84
2023/08/11 00:33:41;;;;;;;4.68;3.97;;;;;;;21.01;74.08;100769.00;4970170;28;20031;-78
2023/08/11 00:36:06;;;;;;;5.25;2.95;;;;;;;20.89;74.10;100739.56;4970420;28;20026;-80
2023/08/11 00:38:40;;;;;;;6.10;3.58;;;;;;;20.93;72.92;100762.78;4970712;28;20035;-79
2023/08/11 00:41:06;;;;;;;9.48;3.03;;;;;;;20.92;72.85;100752.88;4970761;28;20038;-80
2023/08/11 00:43:32;;;;;;;4.50;2.83;;;;;;;20.95;73.71;100767.03;4970814;28;20454;-80
2023/08/11 00:45:59;;;;;;;8.73;3.30;;;;;;;21.02;74.09;100761.66;4970941;28;20030;-81
2023/08/11 00:48:25;;;;;;;5.65;3.92;;;;;;;21.00;74.16;100752.78;4971137;28;20174;-80
2023/08/11 00:50:56;;;;;;;9.15;3.67;;;;;;;20.92;73.87;100752.88;4970407;28;20733;-80
2023/08/11 00:53:22;;;;;;;9.20;3.80;;;;;;;20.83;74.96;100734.88;4970395;28;20045;-79
2023/08/11 00:55:47;;;;;;;4.18;3.55;;;;;;;20.97;74.88;100759.50;4970309;28;20023;-79
2023/08/11 00:58:13;;;;;;;7.53;3.90;;;;;;;20.90;74.29;100742.13;4970720;28;20426;-78
2023/08/11 01:00:39;;;;;;;4.85;3.50;;;;;;;20.89;74.22;100734.09;4970334;28;20133;-80
2023/08/11 01:03:04;;;;;;;6.50;3.85;;;;;;;20.99;74.15;100745.63;4973093;28;20030;-79
2023/08/11 01:05:34;;;;;;;5.93;3.50;;;;;;;20.90;73.58;100747.59;4989696;28;20097;-78
2023/08/11 01:08:27;;;;;;;11.57;3.90;;;;;;;20.91;73.46;100737.53;4989750;28;20487;-78
2023/08/11 01:11:02;;;;;;;6.78;3.90;;;;;;;20.98;73.31;100749.38;5004617;28;20417;-81
2023/08/11 01:13:29;;;;;;;4.53;3.08;;;;;;;20.92;72.35;100737.31;4989636;28;20051;-78
2023/08/11 01:15:59;;;;;;;5.63;3.70;;;;;;;20.98;72.70;100754.84;4989443;28;20471;-79
2023/08/11 01:18:26;;;;;;;6.43;3.92;;;;;;;21.07;71.91;100753.72;4989848;28;20491;-79
2023/08/11 01:21:03;;;;;;;7.20;3.35;;;;;;;21.08;71.63;100752.69;4989671;28;20030;-78
2023/08/11 01:23:29;;;;;;;7.85;3.25;;;;;;;21.03;71.23;100757.88;4993181;28;20045;-82
2023/08/11 01:25:56;;;;;;;4.55;2.70;;;;;;;21.09;71.97;100757.16;4993057;28;20073;-79
2023/08/11 01:28:21;;;;;;;4.53;2.90;;;;;;;21.14;71.99;100765.63;4993835;28;20026;-85
2023/08/11 01:30:48;;;;;;;5.55;3.40;;;;;;;21.04;74.87;100759.56;4993485;28;20022;-80
2023/08/11 01:33:14;;;;;;;7.88;3.10;;;;;;;20.85;76.18;100754.69;4993321;28;20030;-80
2023/08/11 01:35:40;;;;;;;6.65;3.88;;;;;;;20.60;78.49;100744.00;4993554;28;20088;-81
2023/08/11 01:38:06;;;;;;;6.65;4.05;;;;;;;20.54;79.99;100758.44;4993317;28;20026;-80
2023/08/11 01:40:32;;;;;;;7.43;3.95;;;;;;;20.38;81.43;100764.03;4993273;28;20410;-79
2023/08/11 01:43:02;;;;;;;5.45;4.05;;;;;;;20.27;82.49;100764.50;4992874;28;20061;-84
2023/08/11 01:45:28;;;;;;;4.65;3.92;;;;;;;20.00;82.46;100727.63;4992929;28;20565;-80
2023/08/11 01:47:55;;;;;;;5.50;4.38;;;;;;;20.17;82.17;100766.59;4993234;28;20053;-80
2023/08/11 01:50:22;;;;;;;4.25;3.40;;;;;;;20.15;81.62;100749.50;4993130;28;20058;-80
2023/08/11 01:52:48;;;;;;;4.18;3.45;;;;;;;20.28;80.72;100748.94;4992729;28;20065;-80
2023/08/11 01:55:15;;;;;;;7.88;3.63;;;;;;;20.14;80.04;100736.06;4993263;28;20022;-81
2023/08/11 01:57:41;;;;;;;5.97;3.38;;;;;;;20.44;79.20;100771.50;4992897;28;20053;-80
2023/08/11 02:00:09;;;;;;;4.60;3.60;;;;;;;20.33;79.43;100750.09;4994182;28;20485;-81
2023/08/11 02:02:37;;;;;;;5.88;3.00;;;;;;;20.40;79.39;100778.34;4993493;28;20027;-80
2023/08/11 02:05:07;;;;;;;6.93;3.45;;;;;;;20.45;78.84;100770.47;4992785;28;20034;-79
2023/08/11 02:07:34;;;;;;;6.13;3.85;;;;;;;20.47;78.68;100768.41;4993525;28;20045;-81
2023/08/11 02:10:00;;;;;;;5.75;3.25;;;;;;;20.57;78.34;100768.13;4993071;28;20775;-80
2023/08/11 02:12:25;;;;;;;4.95;3.35;;;;;;;20.58;78.06;100767.94;4992717;28;20038;-81
2023/08/11 02:14:51;;;;;;;4.40;3.17;;;;;;;20.54;77.40;100761.16;4993193;28;20054;-81
2023/08/11 02:17:16;;;;;;;4.50;3.22;;;;;;;20.58;77.21;100769.81;4993537;28;20500;-81
2023/08/11 02:19:42;;;;;;;8.25;3.30;;;;;;;20.63;77.03;100772.84;4993245;28;20032;-80
2023/08/11 02:22:07;;;;;;;5.53;3.17;;;;;;;20.58;76.69;100764.34;4994885;28;20026;-80
2023/08/11 02:24:35;;;;;;;8.57;3.50;;;;;;;20.54;76.14;100761.16;4994613;28;20479;-81
2023/08/11 02:27:01;;;;;;;4.43;3.10;;;;;;;20.61;75.74;100770.28;4998689;28;20025;-83
2023/08/11 02:29:27;;;;;;;4.47;2.83;;;;;;;20.63;75.47;100772.84;4999449;28;20494;-81
2023/08/11 02:31:52;;;;;;;8.40;3.17;;;;;;;20.61;75.31;100770.28;5005084;28;20053;-82
2023/08/11 02:34:18;;;;;;;6.90;2.80;;;;;;;20.60;75.05;100768.63;5009567;28;20050;-78
2023/08/11 02:36:43;;;;;;;3.35;2.80;;;;;;;20.62;74.94;100772.00;5007823;28;20533;-80
2023/08/11 02:39:09;;;;;;;3.88;2.88;;;;;;;20.64;74.95;100775.38;4998880;28;20041;-80
2023/08/11 02:41:35;;;;;;;5.70;3.70;;;;;;;20.68;74.39;100783.22;4994374;28;20161;-82
2023/08/11 02:44:01;;;;;;;9.15;2.90;;;;;;;20.65;74.45;100778.97;4993178;28;20490;-82
2023/08/11 02:46:26;;;;;;;5.55;3.50;;;;;;;20.63;73.63;100765.50;4994227;28;20030;-82
2023/08/11 02:48:52;;;;;;;5.32;3.40;;;;;;;20.67;74.00;100767.88;4993045;28;20048;-82
2023/08/11 02:51:18;;;;;;;3.40;2.78;;;;;;;20.74;73.22;100775.13;4992918;28;20026;-83
2023/08/11 02:53:44;;;;;;;6.88;2.72;;;;;;;20.75;73.58;100775.97;4991137;28;20401;-82
2023/08/11 02:56:13;;;;;;;3.90;2.50;;;;;;;20.78;73.49;100770.13;4991958;28;20037;-82
2023/08/11 02:58:38;;;;;;;9.32;4.10;;;;;;;20.68;73.92;100764.94;4992101;28;20360;-84
2023/08/11 03:01:04;;;;;;;7.40;3.35;;;;;;;20.73;73.88;100772.59;4992255;28;20023;-83
2023/08/11 03:03:29;;;;;;;4.10;2.90;;;;;;;20.67;73.32;100767.88;4991987;28;20104;-84
2023/08/11 03:05:56;;;;;;;7.03;3.13;;;;;;;20.77;72.78;100784.81;4990893;28;20037;-84
2023/08/11 03:08:22;;;;;;;7.63;3.08;;;;;;;20.72;73.35;100787.28;4993080;28;20113;-83
2023/08/11 03:10:48;;;;;;;10.15;3.63;;;;;;;20.70;73.74;100792.09;4993474;28;20375;-80
2023/08/11 03:13:13;;;;;;;5.07;3.30;;;;;;;20.67;74.22;100800.66;4993124;28;20054;-79
2023/08/11 03:15:38;;;;;;;10.20;4.25;;;;;;;20.63;73.82;100795.56;4992652;28;20022;-79
2023/08/11 03:18:04;;;;;;;4.63;3.10;;;;;;;20.54;74.48;100791.22;4991799;28;20116;-80
2023/08/11 03:20:30;;;;;;;6.80;3.38;;;;;;;20.53;73.98;100786.78;4992712;28;20053;-79
2023/08/11 03:22:55;;;;;;;3.85;3.22;;;;;;;20.54;74.23;100780.28;4991609;28;20026;-81
2023/08/11 03:25:20;;;;;;;7.20;4.00;;;;;;;20.67;74.45;100803.41;4991866;28;20109;-82
2023/08/11 03:27:46;;;;;;;6.70;3.47;;;;;;;20.62;74.34;100796.59;4991876;28;20489;-80
2023/08/11 03:30:12;;;;;;;10.40;4.82;;;;;;;20.68;74.61;100805.06;4991509;28;20026;-81
2023/08/11 03:32:39;;;;;;;8.52;3.45;;;;;;;20.73;74.04;100808.13;4991315;28;20026;-79
2023/08/11 03:35:06;;;;;;;6.25;3.45;;;;;;;20.75;73.67;100825.19;4956335;28;20039;-78
2023/08/11 03:37:32;;;;;;;6.10;3.20;;;;;;;20.70;73.84;100828.47;4988504;28;20054;-77
2023/08/11 03:39:58;;;;;;;9.63;3.97;;;;;;;20.70;74.02;100830.38;4990543;28;20022;-79
2023/08/11 03:42:23;;;;;;;5.05;3.30;;;;;;;20.72;74.14;100825.53;4990474;28;20038;-88
2023/08/11 03:44:51;;;;;;;5.63;3.80;;;;;;;20.77;73.77;100836.75;4990974;28;20031;-80
2023/08/11 03:47:17;;;;;;;4.97;2.92;;;;;;;20.79;73.79;100826.50;4990467;28;20022;-86
2023/08/11 03:49:42;;;;;;;6.80;3.50;;;;;;;20.74;73.32;100820.72;5005136;28;20039;-78
2023/08/11 03:52:08;;;;;;;12.10;3.58;;;;;;;20.80;73.15;100839.13;4983075;28;20124;-80
2023/08/11 03:54:33;;;;;;;5.18;3.55;;;;;;;20.85;73.57;100844.91;4972195;28;20062;-80
2023/08/11 03:56:59;;;;;;;6.40;3.80;;;;;;;20.85;73.20;100837.56;4972404;28;20070;-79
2023/08/11 03:59:24;;;;;;;4.72;3.05;;;;;;;20.90;72.95;100846.03;4974287;28;20039;-82
2023/08/11 04:01:49;;;;;;;6.15;3.60;;;;;;;21.00;73.25;100848.50;4971935;28;20019;-80
2023/08/11 04:04:15;;;;;;;20.90;5.32;;;;;;;20.90;72.57;100836.97;4971821;28;20110;-80
2023/08/11 04:06:40;;;;;;;13.55;3.55;;;;;;;21.05;72.96;100854.25;4972140;28;20027;-81
2023/08/11 04:09:06;;;;;;;7.45;3.22;;;;;;;21.00;72.12;100845.78;4971524;28;20108;-80
2023/08/11 04:11:32;;;;;;;5.65;3.15;;;;;;;20.96;72.26;100847.19;4972040;28;20059;-81
2023/08/11 04:13:58;;;;;;;11.25;3.75;;;;;;;21.04;72.67;100847.94;4970678;28;20423;-81
2023/08/11 04:16:24;;;;;;;5.93;3.83;;;;;;;20.93;72.36;100826.53;4971269;28;20037;-81
2023/08/11 04:18:49;;;;;;;7.22;3.50;;;;;;;21.12;71.99;100852.50;4971607;28;20459;-79
2023/08/11 04:21:15;;;;;;;7.82;3.42;;;;;;;20.98;72.42;100835.00;4970807;28;20776;-78
2023/08/11 04:23:40;;;;;;;11.27;4.80;;;;;;;21.02;72.77;100846.44;4977304;28;20027;-81
2023/08/11 04:26:06;;;;;;;9.05;3.85;;;;;;;20.88;72.40;100817.19;4979866;28;20037;-79
2023/08/11 04:28:32;;;;;;;7.90;4.18;;;;;;;20.94;72.92;100836.44;4971443;28;20026;-80
2023/08/11 04:30:59;;;;;;;10.65;3.67;;;;;;;20.93;72.94;100822.94;4972928;28;20039;-84
2023/08/11 04:33:25;;;;;;;8.07;4.70;;;;;;;20.80;72.99;100812.66;4971815;28;20030;-80
2023/08/11 04:35:51;;;;;;;9.18;4.85;;;;;;;20.96;72.96;100838.97;4972734;28;20115;-78
2023/08/11 04:38:17;;;;;;;14.02;4.53;;;;;;;20.95;73.32;100842.72;4972313;28;20202;-79
2023/08/11 04:40:42;;;;;;;7.00;4.80;;;;;;;20.80;73.55;100817.25;4972141;28;20030;-81
2023/08/11 04:43:08;;;;;;;12.55;4.22;;;;;;;20.87;73.23;100832.75;4971508;28;20035;-83
2023/08/11 04:45:34;;;;;;;4.13;3.63;;;;;;;21.04;73.21;100847.06;4971043;28;20455;-79
2023/08/11 04:47:59;;;;;;;5.53;4.13;;;;;;;20.97;73.76;100840.69;4970970;28;20038;-79
2023/08/11 04:50:25;;;;;;;7.63;3.67;;;;;;;20.97;73.33;100851.63;4970721;28;20030;-79
2023/08/11 04:52:51;;;;;;;9.20;3.97;;;;;;;21.01;73.77;100844.72;4970943;28;20121;-80
2023/08/11 04:55:16;;;;;;;6.78;4.13;;;;;;;21.02;73.47;100843.69;4971139;28;20105;-80
2023/08/11 04:57:42;;;;;;;16.88;4.13;;;;;;;21.13;73.41;100860.53;4973345;28;20114;-82
2023/08/11 05:00:13;;;;;;;9.25;3.38;;;;;;;21.14;73.24;100864.97;4973729;28;20570;-82
2023/08/11 05:02:40;;;;;;;12.68;3.65;;;;;;;21.07;72.91;100841.22;4974383;28;20034;-78
2023/08/11 05:05:07;;;;;;;10.57;3.55;;;;;;;21.28;72.82;100871.50;4973351;28;20578;-79
2023/08/11 05:07:33;;;;;;;13.68;4.72;;;;;;;21.28;72.98;100876.97;4974072;28;20033;-80
2023/08/11 05:09:59;;;;;;;8.05;3.75;;;;;;;21.36;72.80;100876.88;4973683;28;20031;-76
2023/08/11 05:12:24;;;;;;;7.28;4.60;;;;;;;21.35;73.36;100871.56;4975748;28;20085;-79
2023/08/11 05:14:50;;;;;;;7.30;3.90;;;;;;;21.38;73.16;100877.50;4974508;28;20862;-83
2023/08/11 05:17:15;;;;;;;13.85;4.55;;;;;;;21.35;72.60;100860.63;4973749;28;20077;-80
2023/08/11 05:19:41;;;;;;;16.00;6.60;;;;;;;21.48;71.56;100877.22;4973483;28;20026;-80
2023/08/11 05:22:06;;;;;;;18.15;5.03;;;;;;;21.64;72.12;100877.91;4973627;28;20031;-82
2023/08/11 05:24:32;;;;;;;15.70;4.50;;;;;;;21.76;71.69;100880.13;4974145;28;20027;-80
2023/08/11 05:26:58;;;;;;;8.98;4.40;;;;;;;21.78;71.08;100867.09;4974887;28;20047;-80
2023/08/11 05:29:24;;;;;;;19.35;6.03;;;;;;;21.83;70.80;100870.13;4974865;28;20450;-82
2023/08/11 05:31:49;;;;;;;14.35;4.28;;;;;;;21.99;70.77;100880.88;4972998;28;20026;-81
2023/08/11 05:34:15;;;;;;;5.35;3.50;;;;;;;22.01;69.72;100860.47;4972738;28;20391;-80
2023/08/11 05:36:40;;;;;;;9.00;4.30;;;;;;;22.07;69.39;100867.94;4975206;28;20516;-84
2023/08/11 05:39:08;;;;;;;7.53;3.50;;;;;;;22.05;69.42;100874.63;4975778;28;20034;-80
2023/08/11 05:41:34;;;;;;;6.10;3.60;;;;;;;21.99;69.50;100869.91;4976162;28;20030;-82
2023/08/11 05:43:59;;;;;;;12.10;3.78;;;;;;;22.01;69.95;100873.31;4975964;28;20058;-85
2023/08/11 05:46:25;;;;;;;7.38;3.70;;;;;;;22.05;69.92;100863.66;4976004;28;20562;-87
2023/08/11 05:48:51;;;;;;;14.52;4.03;;;;;;;22.21;69.49;100875.25;4975482;28;20027;-88
2023/08/11 05:51:17;;;;;;;10.60;4.00;;;;;;;22.27;69.78;100867.28;4992258;28;20038;-87
2023/08/11 05:53:42;;;;;;;8.38;3.38;;;;;;;22.28;68.83;100847.91;4996372;28;20018;-81
2023/08/11 05:56:08;;;;;;;14.93;4.40;;;;;;;22.33;67.62;100845.41;5005199;28;20030;-87
2023/08/11 05:58:37;;;;;;;5.15;3.15;;;;;;;22.58;67.95;100854.09;4996085;28;20029;-87
2023/08/11 06:01:02;;;;;;;12.95;4.00;;;;;;;22.78;66.52;100864.22;4997987;28;20026;-80
2023/08/11 06:03:30;;;;;;;7.47;3.67;;;;;;;22.87;66.47;100855.88;5002104;28;20049;-87
2023/08/11 06:06:04;;;;;;;12.63;3.90;;;;;;;23.13;65.47;100872.50;5001374;28;20042;-88
2023/08/11 06:08:30;;;;;;;8.40;4.15;;;;;;;23.24;65.11;100866.44;4995638;28;20573;-82
2023/08/11 06:10:56;;;;;;;4.13;3.08;;;;;;;23.33;63.05;100866.09;4995692;28;20394;-85
2023/08/11 06:13:23;;;;;;;9.35;3.75;;;;;;;23.33;62.97;100869.91;4997773;28;20069;-89
2023/08/11 06:15:49;;;;;;;7.70;3.58;;;;;;;23.37;62.91;100858.31;4994612;28;20022;-85
2023/08/11 06:18:15;;;;;;;12.63;3.58;;;;;;;23.39;62.43;100863.63;4995291;28;20344;-89
2023/08/11 06:20:41;;;;;;;10.88;4.65;;;;;;;23.54;62.83;100865.22;4993618;28;20121;-89
2023/08/11 06:23:07;;;;;;;5.45;3.67;;;;;;;23.54;63.21;100840.50;5004393;28;20094;-82
2023/08/11 06:25:32;;;;;;;8.15;4.18;;;;;;;23.68;62.66;100869.72;5013716;28;20026;-88
2023/08/11 06:28:01;;;;;;;9.07;4.40;;;;;;;23.67;62.26;100875.38;5009252;28;20022;-85
2023/08/11 06:30:28;;;;;;;11.70;5.05;;;;;;;23.65;62.59;100869.25;5021476;28;20090;-84
2023/08/11 06:32:54;;;;;;;15.90;4.25;;;;;;;23.52;62.70;100848.06;5014601;28;20069;-83
2023/08/11 06:35:20;;;;;;;6.53;3.67;;;;;;;23.67;62.79;100853.41;5019967;28;20026;-87
2023/08/11 06:37:46;;;;;;;13.77;4.05;;;;;;;23.70;63.26;100866.75;5021830;28;20125;-87
2023/08/11 06:40:13;;;;;;;23.70;6.68;;;;;;;23.66;62.92;100855.34;5011630;28;20037;-86
2023/08/11 06:42:38;;;;;;;13.27;4.07;;;;;;;23.86;62.62;100871.88;5017242;28;20065;-86
2023/08/11 06:45:04;;;;;;;6.70;3.53;;;;;;;23.93;61.43;100849.94;5007848;28;20038;-86
2023/08/11 06:47:31;;;;;;;10.35;4.22;;;;;;;23.81;60.20;100836.81;5028537;28;20027;-87
2023/08/11 06:49:57;;;;;;;14.85;3.78;;;;;;;23.83;60.16;100855.81;5008372;28;20034;-84
2023/08/11 06:52:23;;;;;;;6.07;3.70;;;;;;;23.80;60.48;100845.25;5008860;28;20036;-89
2023/08/11 06:54:48;;;;;;;6.70;4.30;;;;;;;23.93;59.98;100858.19;5012301;28;20140;-87
2023/08/11 06:57:14;;;;;;;6.20;3.50;;;;;;;23.94;59.58;100859.88;5004117;28;20061;-89
2023/08/11 06:59:40;;;;;;;17.00;4.22;;;;;;;23.93;59.20;100856.28;4997072;28;20026;-93
2023/08/11 07:02:06;;;;;;;9.45;3.35;;;;;;;24.05;58.99;100860.13;5007752;28;20061;-84
2023/08/11 07:04:31;;;;;;;9.43;3.92;;;;;;;23.98;58.92;100841.91;5001804;28;20029;-83
2023/08/11 07:06:57;;;;;;;10.05;3.53;;;;;;;24.11;59.24;100831.00;4999099;28;20053;-87
2023/08/11 07:09:22;;;;;;;9.48;4.05;;;;;;;24.16;58.90;100834.81;4999732;28;20034;-93
2023/08/11 07:11:48;;;;;;;10.75;3.45;;;;;;;24.31;58.42;100827.22;5003914;28;20069;-89
2023/08/11 07:14:13;;;;;;;16.95;4.55;;;;;;;24.54;58.47;100854.34;4998528;28;20439;-88
2023/08/11 07:16:39;;;;;;;6.05;3.72;;;;;;;24.76;56.91;100842.09;4991965;28;20677;-82
2023/08/11 07:19:05;;;;;;;9.45;4.40;;;;;;;24.92;55.19;100862.88;4993985;28;20030;-88
2023/08/11 07:21:31;;;;;;;9.25;5.63;;;;;;;24.95;54.98;100850.56;5010465;28;20038;-82
2023/08/11 07:23:56;;;;;;;15.55;5.13;;;;;;;25.03;54.33;100853.94;4992545;28;20023;-81
2023/08/11 07:26:23;;;;;;;11.88;4.30;;;;;;;25.18;53.80;100857.31;4994917;28;20121;-81
2023/08/11 07:28:49;;;;;;;12.52;4.43;;;;;;;25.26;53.40;100872.75;5006034;28;20046;-93
2023/08/11 07:31:17;;;;;;;7.15;4.25;;;;;;;25.21;53.38;100845.03;5010634;28;20026;-86
2023/08/11 07:33:43;;;;;;;10.05;4.70;;;;;;;25.30;52.60;100855.59;5002311;28;20434;-86
2023/08/11 07:36:14;;;;;;;17.10;5.63;;;;;;;25.24;52.49;100822.56;4998355;28;20045;-84
2023/08/11 07:38:40;;;;;;;7.97;4.10;;;;;;;25.36;53.22;100854.72;4999834;28;20038;-85
2023/08/11 07:41:06;;;;;;;14.40;6.03;;;;;;;25.30;51.19;100840.97;4995191;28;20030;-85
2023/08/11 07:43:32;;;;;;;18.20;5.68;;;;;;;25.49;51.06;100864.91;4994808;28;20537;-85
2023/08/11 07:45:57;;;;;;;9.40;4.05;;;;;;;25.48;50.25;100857.66;4993152;28;20541;-81
2023/08/11 07:48:23;;;;;;;23.35;8.65;;;;;;;25.56;49.33;100860.25;4991816;28;20476;-86
2023/08/11 07:50:48;;;;;;;14.02;5.88;;;;;;;25.64;49.63;100845.34;4991537;28;20026;-87
2023/08/11 07:53:14;;;;;;;13.32;5.65;;;;;;;25.85;49.90;100853.31;4991277;28;20019;-85
2023/08/11 07:55:40;;;;;;;12.38;4.40;;;;;;;25.93;49.44;100858.59;4991403;28;20026;-85
2023/08/11 07:58:07;;;;;;;7.93;4.07;;;;;;;26.01;48.79;100868.53;4990955;28;20022;-86
2023/08/11 08:00:32;;;;;;;12.45;6.22;;;;;;;26.02;49.42;100864.72;4989756;28;20053;-83
2023/08/11 08:02:58;;;;;;;9.18;4.40;;;;;;;26.10;49.56;100872.72;4987932;28;20042;-80
2023/08/11 08:05:23;;;;;;;12.18;4.13;;;;;;;26.17;48.94;100862.53;4990039;28;20406;-81
2023/08/11 08:07:49;;;;;;;22.83;3.78;;;;;;;26.27;49.20;100860.13;4992425;28;20522;-83
2023/08/11 08:10:15;;;;;;;9.95;5.00;;;;;;;26.38;48.33;100860.28;4991101;28;20053;-83
2023/08/11 08:12:45;;;;;;;13.82;4.03;;;;;;;26.42;46.33;100855.19;4992339;28;20031;-86
2023/08/11 08:15:12;;;;;;;14.38;3.70;;;;;;;26.55;46.04;100863.34;4953746;28;20036;-84
2023/08/11 08:17:39;;;;;;;29.52;4.32;;;;;;;26.64;45.55;100856.47;4950544;28;20028;-83
2023/08/11 08:20:08;;;;;;;13.25;3.58;;;;;;;26.76;45.43;100862.94;4950796;28;20042;-87
2023/08/11 08:22:34;;;;;;;13.80;4.95;;;;;;;26.85;45.91;100856.13;4953303;28;20054;-90
2023/08/11 08:24:59;;;;;;;12.63;3.88;;;;;;;26.96;44.58;100857.31;4950110;29;20067;-86
2023/08/11 08:27:25;;;;;;;12.15;4.45;;;;;;;27.03;43.76;100858.91;4951533;28;20042;-82
2023/08/11 08:29:54;;;;;;;27.48;4.38;;;;;;;27.18;43.37;100872.41;4951881;28;20487;-85
2023/08/11 08:32:22;;;;;;;7.25;3.42;;;;;;;27.13;41.06;100852.88;4949846;28;20035;-83
2023/08/11 08:34:49;;;;;;;11.35;3.55;;;;;;;27.24;41.48;100865.13;4951591;28;20023;-85
2023/08/11 08:37:19;;;;;;;4.82;3.10;;;;;;;27.30;41.03;100861.44;4950871;28;20462;-83
2023/08/11 08:39:46;;;;;;;15.55;4.20;;;;;;;27.29;40.92;100851.44;4950838;28;20031;-84
2023/08/11 08:42:13;;;;;;;21.10;7.25;;;;;;;27.42;41.43;100859.59;4949567;28;20031;-84
2023/08/11 08:44:39;;;;;;;16.20;4.40;;;;;;;27.52;41.18;100854.44;4951494;28;20038;-84
2023/08/11 08:47:05;;;;;;;14.45;5.22;;;;;;;27.63;41.01;100850.91;4951117;28;20016;-84
2023/08/11 08:49:31;;;;;;;17.08;4.82;;;;;;;27.77;40.33;100866.22;4951121;28;20511;-83
2023/08/11 08:51:57;;;;;;;10.57;4.25;;;;;;;27.84;38.77;100878.06;4950606;28;20033;-87
2023/08/11 08:54:23;;;;;;;26.88;4.90;;;;;;;27.85;38.02;100868.69;4951071;28;20082;-84
2023/08/11 08:56:52;;;;;;;28.02;5.72;;;;;;;27.93;37.86;100857.31;4951152;28;20107;-84
2023/08/11 08:59:17;;;;;;;14.50;4.05;;;;;;;27.94;38.07;100870.06;4950951;28;20039;-85
2023/08/11 09:01:43;;;;;;;17.75;4.20;;;;;;;27.85;38.04;100856.78;4950970;28;20555;-84
2023/08/11 09:04:09;;;;;;;15.80;3.92;;;;;;;27.87;37.94;100862.91;4951663;28;20031;-84
2023/08/11 09:06:35;;;;;;;16.90;4.28;;;;;;;27.94;37.63;100861.78;4950734;28;20028;-84
2023/08/11 09:09:01;;;;;;;14.10;4.05;;;;;;;27.86;37.13;100836.34;4950457;28;20035;-84
2023/08/11 09:11:27;;;;;;;6.47;3.65;;;;;;;28.07;36.83;100861.59;4951288;28;20426;-84
2023/08/11 09:13:53;;;;;;;10.02;4.22;;;;;;;28.15;37.33;100854.06;4969742;28;20081;-85
2023/08/11 09:16:23;;;;;;;23.02;4.40;;;;;;;28.14;36.94;100838.53;4989669;28;20085;-84
2023/08/11 09:18:49;;;;;;;24.15;4.75;;;;;;;28.36;36.77;100861.84;4989092;28;20030;-84
2023/08/11 09:21:14;;;;;;;9.43;2.75;;;;;;;28.48;35.53;100865.50;4989054;28;20077;-83
2023/08/11 09:23:42;;;;;;;14.88;3.40;;;;;;;28.47;35.97;100872.94;4989528;28;20022;-84
2023/08/11 09:26:09;;;;;;;11.07;3.20;;;;;;;28.47;35.95;100856.34;4988744;28;20026;-83
2023/08/11 09:28:35;;;;;;;13.30;3.75;;;;;;;28.48;35.08;100876.56;5007604;28;20026;-83
2023/08/11 09:31:00;;;;;;;12.73;3.53;;;;;;;28.55;34.81;100878.16;4991024;28;20061;-83
2023/08/11 09:33:26;;;;;;;15.55;4.60;;;;;;;28.64;34.01;100873.13;4990747;28;20124;-85
2023/08/11 09:35:53;;;;;;;9.73;2.90;;;;;;;28.66;34.21;100883.97;4990158;28;20028;-84
2023/08/11 09:38:19;;;;;;;15.32;2.92;;;;;;;28.60;34.68;100877.44;4990444;28;20030;-82
2023/08/11 09:40:48;;;;;;;16.10;4.25;;;;;;;28.59;34.82;100864.69;4994572;28;20085;-82
2023/08/11 09:43:14;;;;;;;19.30;4.22;;;;;;;28.65;35.02;100858.25;4995441;28;20034;-83
2023/08/11 09:45:39;;;;;;;12.35;4.38;;;;;;;28.73;34.96;100871.75;4995927;28;20117;-83
2023/08/11 09:48:05;;;;;;;21.90;4.72;;;;;;;28.78;34.54;100869.09;4992935;28;20395;-84
2023/08/11 09:50:34;;;;;;;8.95;3.38;;;;;;;28.86;33.83;100871.53;4992862;28;20030;-83
2023/08/11 09:53:00;;;;;;;18.38;3.40;;;;;;;28.92;33.67;100867.81;4992849;28;20117;-83
2023/08/11 09:55:29;;;;;;;19.60;4.85;;;;;;;28.97;33.49;100884.53;4991430;28;20486;-84
2023/08/11 09:57:56;;;;;;;13.77;4.32;;;;;;;28.99;32.75;100890.66;4992795;28;20072;-84
2023/08/11 10:00:23;;;;;;;11.73;3.80;;;;;;;29.04;33.00;100879.72;4992330;28;20105;-84
2023/08/11 10:03:01;;;;;;;13.95;3.33;;;;;;;29.13;32.70;100878.28;4992316;28;20384;-83
2023/08/11 10:05:29;;;;;;;9.40;3.47;;;;;;;29.24;32.74;100896.03;4992491;28;20025;-83
2023/08/11 10:07:57;;;;;;;15.48;3.85;;;;;;;29.27;32.72;100886.38;4992544;28;20034;-85
2023/08/11 10:10:23;;;;;;;14.93;5.68;;;;;;;29.37;32.37;100890.25;4992108;28;20141;-85
2023/08/11 10:12:59;;;;;;;7.95;3.63;;;;;;;29.40;32.15;100883.38;4992554;28;20459;-84
2023/08/11 10:15:27;;;;;;;10.95;3.75;;;;;;;29.41;31.71;100880.38;4991373;28;20406;-83
2023/08/11 10:17:53;;;;;;;19.75;4.88;;;;;;;29.59;32.10;100893.25;4992602;28;20035;-85
2023/08/11 10:20:20;;;;;;;11.48;4.60;;;;;;;29.60;32.16;100887.44;4992589;28;20076;-84
2023/08/11 10:22:46;;;;;;;24.08;3.67;;;;;;;29.70;31.06;100898.75;4992799;28;20042;-84
2023/08/11 10:25:12;;;;;;;10.70;3.40;;;;;;;29.69;31.41;100874.06;4992547;28;20031;-84
2023/08/11 10:27:39;;;;;;;12.13;4.00;;;;;;;29.81;31.76;100902.63;4992560;28;20100;-82
2023/08/11 10:30:08;;;;;;;10.30;3.55;;;;;;;29.79;31.08;100895.59;4991799;28;20029;-84
2023/08/11 10:32:35;;;;;;;12.13;4.20;;;;;;;29.81;31.69;100901.78;4992440;28;20109;-84
2023/08/11 10:35:00;;;;;;;9.07;3.53;;;;;;;29.87;31.47;100885.03;4992024;28;20041;-86
2023/08/11 10:37:31;;;;;;;13.63;4.10;;;;;;;29.88;31.99;100866.44;4991155;28;20034;-83
2023/08/11 10:40:22;;;;;;;9.43;3.70;;;;;;;30.13;32.11;100886.38;4992954;28;20030;-84
2023/08/11 10:42:50;;;;;;;10.97;4.13;;;;;;;30.16;30.66;100889.50;4932052;29;20039;-83
2023/08/11 10:45:21;;;;;;;7.32;2.80;;;;;;;30.15;29.65;100901.69;4931822;29;20051;-84
2023/08/11 10:47:53;;;;;;;7.47;2.90;;;;;;;30.06;30.32;100882.94;4931514;29;20039;-84
2023/08/11 10:50:19;;;;;;;8.05;2.45;;;;;;;30.17;30.66;100871.78;4931769;29;20036;-84
2023/08/11 10:52:46;;;;;;;17.05;3.88;;;;;;;30.33;30.86;100899.84;4931379;29;20143;-84
2023/08/11 10:55:14;;;;;;;10.57;3.00;;;;;;;30.37;29.58;100890.75;4930560;29;20459;-84
2023/08/11 10:57:40;;;;;;;16.98;3.35;;;;;;;30.38;30.46;100873.00;4931813;29;20028;-83
2023/08/11 11:00:06;;;;;;;9.40;3.50;;;;;;;30.55;30.39;100889.75;4932175;29;20063;-84
2023/08/11 11:02:35;;;;;;;9.15;4.97;;;;;;;30.66;29.69;100878.56;4930760;29;20027;-84
2023/08/11 11:05:00;;;;;;;16.40;3.63;;;;;;;30.54;29.59;100869.47;4932707;29;20074;-83
2023/08/11 11:07:26;;;;;;;9.60;2.95;;;;;;;30.72;30.06;100872.00;4932329;29;20040;-83
2023/08/11 11:09:52;;;;;;;6.13;2.95;;;;;;;30.90;29.38;100884.81;4931601;29;20031;-83
2023/08/11 11:12:17;;;;;;;16.58;3.58;;;;;;;30.88;29.48;100875.88;4931765;29;20039;-86
2023/08/11 11:14:43;;;;;;;9.10;3.22;;;;;;;30.90;28.90;100879.25;4931641;29;20085;-86
2023/08/11 11:17:08;;;;;;;5.38;3.05;;;;;;;30.91;28.86;100874.53;4931644;29;20126;-85
2023/08/11 11:19:35;;;;;;;11.02;3.80;;;;;;;30.97;29.25;100877.19;4963264;28;20572;-88